createdAt,value
2023-07-03T00:00:28.025Z,17.10
2023-07-03T00:05:31.894Z,17.30
2023-07-03T00:10:36.777Z,17.30
2023-07-03T00:15:40.478Z,17.40
2023-07-03T00:20:44.314Z,17.30
2023-07-03T00:25:49.341Z,17.30
2023-07-03T00:30:53.001Z,17.30
2023-07-03T00:35:56.416Z,17.30
2023-07-03T00:41:01.146Z,17.30
2023-07-03T00:46:04.261Z,17.30
2023-07-03T00:51:07.462Z,17.30
2023-07-03T00:56:13.126Z,17.30
2023-07-03T01:01:19.081Z,17.40
2023-07-03T01:06:25.043Z,17.40
2023-07-03T01:11:30.450Z,17.50
2023-07-03T01:16:34.493Z,17.50
2023-07-03T01:21:46.315Z,17.60
2023-07-03T01:26:50.865Z,17.60
2023-07-03T01:31:57.689Z,17.70
2023-07-03T01:37:02.766Z,17.70
2023-07-03T01:42:09.058Z,17.80
2023-07-03T01:47:13.811Z,17.80
2023-07-03T01:52:19.662Z,17.80
2023-07-03T01:57:32.165Z,17.70
2023-07-03T02:02:37.462Z,17.80
2023-07-03T02:07:41.091Z,17.80
2023-07-03T02:12:47.814Z,17.80
2023-07-03T02:17:57.016Z,17.80
2023-07-03T02:23:02.292Z,17.70
2023-07-03T02:28:07.283Z,17.80
2023-07-03T02:33:10.319Z,17.80
2023-07-03T02:38:13.309Z,17.70
2023-07-03T02:43:17.833Z,17.70
2023-07-03T02:48:21.828Z,17.60
2023-07-03T02:53:25.914Z,17.60
2023-07-03T02:58:37.318Z,17.50
2023-07-03T03:03:40.578Z,17.60
2023-07-03T03:08:43.735Z,17.60
2023-07-03T03:13:48.473Z,17.50
2023-07-03T03:18:52.454Z,17.50
2023-07-03T03:23:56.169Z,17.50
2023-07-03T03:29:01.370Z,17.50
2023-07-03T03:34:05.689Z,17.50
2023-07-03T03:39:08.820Z,17.50
2023-07-03T03:44:14.544Z,17.60
2023-07-03T03:49:18.136Z,17.60
2023-07-03T03:54:21.711Z,17.70
2023-07-03T03:59:27.069Z,17.90
2023-07-03T04:04:30.401Z,18.00
2023-07-03T04:09:33.490Z,18.00
2023-07-03T04:14:39.234Z,18.10
2023-07-03T04:19:42.378Z,18.20
2023-07-03T04:24:45.412Z,18.40
2023-07-03T04:29:49.847Z,18.40
2023-07-03T04:34:52.849Z,18.40
2023-07-03T04:39:55.911Z,18.30
2023-07-03T04:45:01.408Z,18.20
2023-07-03T04:50:04.835Z,18.30
2023-07-03T04:55:08.839Z,18.40
2023-07-03T05:00:17.179Z,18.60
2023-07-03T05:05:20.861Z,19.10
2023-07-03T05:10:25.221Z,20.60
2023-07-03T05:15:32.314Z,21.80
2023-07-03T05:20:35.964Z,22.90
2023-07-03T05:25:39.034Z,22.50
2023-07-03T05:30:43.792Z,21.70
2023-07-03T05:35:51.085Z,21.00
2023-07-03T05:40:55.939Z,20.90
2023-07-03T05:46:00.696Z,20.70
2023-07-03T05:51:04.552Z,20.10
2023-07-03T05:56:07.620Z,19.80
2023-07-03T06:01:11.984Z,19.60
2023-07-03T06:06:15.182Z,19.60
2023-07-03T06:11:18.286Z,19.60
2023-07-03T06:16:22.675Z,19.60
2023-07-03T06:21:25.709Z,19.70
2023-07-03T06:26:30.719Z,19.70
2023-07-03T06:31:35.268Z,20.20
2023-07-03T06:36:38.368Z,20.60
2023-07-03T06:41:41.497Z,20.80
2023-07-03T06:46:45.992Z,21.00
2023-07-03T06:51:49.621Z,20.90
2023-07-03T06:56:53.021Z,21.10
2023-07-03T07:01:57.811Z,20.70
2023-07-03T07:07:01.254Z,20.40
2023-07-03T07:12:04.975Z,20.20
2023-07-03T07:17:11.074Z,20.10
2023-07-03T07:22:14.489Z,19.90
2023-07-03T07:27:17.828Z,19.90
2023-07-03T07:32:26.024Z,20.00
2023-07-03T07:37:29.146Z,19.90
2023-07-03T07:42:34.279Z,20.00
2023-07-03T07:47:39.873Z,20.00
2023-07-03T07:52:43.324Z,20.20
2023-07-03T07:57:46.858Z,20.20
2023-07-03T08:02:51.673Z,20.10
2023-07-03T08:07:54.891Z,20.10
2023-07-03T08:12:58.248Z,20.10
2023-07-03T08:18:03.129Z,20.30
2023-07-03T08:23:06.575Z,20.40
2023-07-03T08:28:09.824Z,20.50
2023-07-03T08:33:15.714Z,20.80
2023-07-03T08:38:19.374Z,20.90
2023-07-03T08:43:22.783Z,21.20
2023-07-03T08:48:28.432Z,21.40
2023-07-03T08:53:34.455Z,21.80
2023-07-03T08:58:37.934Z,21.70
2023-07-03T09:03:47.366Z,21.70
2023-07-03T09:08:54.885Z,21.40
2023-07-03T09:14:01.011Z,21.40
2023-07-03T09:19:08.168Z,21.60
2023-07-03T09:24:16.950Z,21.60
2023-07-03T09:29:20.955Z,21.50
2023-07-03T09:34:26.451Z,21.80
2023-07-03T09:39:29.927Z,21.60
2023-07-03T09:44:33.392Z,21.80
2023-07-03T09:49:38.307Z,22.00
2023-07-03T09:54:43.877Z,21.70
2023-07-03T09:59:47.419Z,21.70
2023-07-03T10:15:07.959Z,21.80
2023-07-03T10:20:17.208Z,21.80
2023-07-03T10:25:22.930Z,21.70
2023-07-03T10:30:26.722Z,21.80
2023-07-03T10:35:34.246Z,22.10
2023-07-03T10:40:42.566Z,22.20
2023-07-03T10:45:47.198Z,22.60
2023-07-03T10:50:56.990Z,23.00
2023-07-03T10:56:04.842Z,22.90
2023-07-03T11:01:12.698Z,23.00
2023-07-03T11:06:21.145Z,23.00
2023-07-03T11:11:29.038Z,23.40
2023-07-03T11:16:37.667Z,23.90
2023-07-03T11:32:00.934Z,24.50
2023-07-03T11:37:26.184Z,24.50
2023-07-03T11:47:36.426Z,24.10
2023-07-03T11:52:47.711Z,24.30
2023-07-03T11:58:14.463Z,24.60
2023-07-03T12:03:39.714Z,24.50
2023-07-03T12:08:45.109Z,24.30
2023-07-03T12:13:50.844Z,24.10
2023-07-03T12:19:08.421Z,24.10
2023-07-03T12:24:20.114Z,24.00
2023-07-03T12:29:23.970Z,24.00
2023-07-03T12:34:28.292Z,23.80
2023-07-03T12:39:33.186Z,24.10
2023-07-03T12:44:36.665Z,23.90
2023-07-03T12:50:03.729Z,23.30
2023-07-03T12:55:14.884Z,23.00
2023-07-03T13:00:24.919Z,22.90
2023-07-03T13:05:28.311Z,23.10
2023-07-03T13:10:32.732Z,23.50
2023-07-03T13:15:37.696Z,24.20
2023-07-03T13:20:41.959Z,24.10
2023-07-03T13:25:54.184Z,24.10
2023-07-03T13:31:15.207Z,24.30
2023-07-03T13:36:23.802Z,24.40
2023-07-03T13:41:28.707Z,24.30
2023-07-03T13:46:32.240Z,24.40
2023-07-03T13:51:36.121Z,24.30
2023-07-03T13:56:41.125Z,24.10
2023-07-03T14:01:45.183Z,23.80
2023-07-03T14:06:49.973Z,23.60
2023-07-03T14:11:54.825Z,24.00
2023-07-03T14:16:58.230Z,24.20
2023-07-03T14:22:01.762Z,24.30
2023-07-03T14:27:08.016Z,24.30
2023-07-03T14:32:11.595Z,24.10
2023-07-03T14:37:14.994Z,23.80
2023-07-03T14:42:19.780Z,23.90
2023-07-03T14:47:23.149Z,24.10
2023-07-03T14:52:27.695Z,23.80
2023-07-03T14:57:32.509Z,23.60
2023-07-03T15:02:36.159Z,24.10
2023-07-03T15:07:39.729Z,24.30
2023-07-03T15:12:45.804Z,24.40
2023-07-03T15:17:51.818Z,24.10
2023-07-03T15:22:55.296Z,24.10
2023-07-03T15:27:59.728Z,24.50
2023-07-03T15:33:03.261Z,24.70
2023-07-03T15:38:06.793Z,24.80
2023-07-03T15:43:12.193Z,24.50
2023-07-03T15:48:15.554Z,24.40
2023-07-03T15:53:19.259Z,24.20
2023-07-03T15:58:24.094Z,24.00
2023-07-03T16:03:27.629Z,23.80
2023-07-03T16:08:32.084Z,23.60
2023-07-03T16:13:37.688Z,23.40
2023-07-03T16:18:40.883Z,23.20
2023-07-03T16:23:44.351Z,23.00
2023-07-03T16:28:49.224Z,23.00
2023-07-03T16:33:53.678Z,22.90
2023-07-03T16:38:58.596Z,22.80
2023-07-03T16:44:03.794Z,22.80
2023-07-03T16:49:07.263Z,22.80
2023-07-03T16:54:10.801Z,22.70
2023-07-03T16:59:15.700Z,22.80
2023-07-03T17:04:18.791Z,23.00
2023-07-03T17:09:22.838Z,23.00
2023-07-03T17:14:27.580Z,23.00
2023-07-03T17:19:33.934Z,22.90
2023-07-03T17:24:37.495Z,23.10
2023-07-03T17:29:42.250Z,23.00
2023-07-03T17:34:45.705Z,23.00
2023-07-03T17:39:49.100Z,22.60
2023-07-03T17:44:53.956Z,22.30
2023-07-03T17:49:57.508Z,22.50
2023-07-03T17:55:01.234Z,23.00
2023-07-03T18:00:08.262Z,23.50
2023-07-03T18:05:11.730Z,24.10
2023-07-03T18:10:15.192Z,24.50
2023-07-03T18:15:20.228Z,25.00
2023-07-03T18:20:23.776Z,25.20
2023-07-03T18:25:27.000Z,25.00
2023-07-03T18:30:32.171Z,24.60
2023-07-03T18:35:36.775Z,24.20
2023-07-03T18:40:40.600Z,23.80
2023-07-03T18:45:48.768Z,23.40
2023-07-03T18:50:52.353Z,22.80
2023-07-03T18:55:55.505Z,22.10
2023-07-03T19:01:00.430Z,21.60
2023-07-03T19:06:04.087Z,21.20
2023-07-03T19:11:07.927Z,20.90
2023-07-03T19:16:14.739Z,19.10
2023-07-03T19:21:18.372Z,20.40
2023-07-03T19:26:21.757Z,20.20
2023-07-03T19:31:27.661Z,20.10
2023-07-03T19:36:31.024Z,20.00
2023-07-03T19:41:34.508Z,19.90
2023-07-03T19:46:39.364Z,19.90
2023-07-03T19:51:42.788Z,19.80
2023-07-03T19:56:46.557Z,19.80
2023-07-03T20:01:53.979Z,19.80
2023-07-03T20:06:57.363Z,19.80
2023-07-03T20:12:00.721Z,19.80
2023-07-03T20:17:06.174Z,19.80
2023-07-03T20:22:09.687Z,19.70
2023-07-03T20:27:12.945Z,19.60
2023-07-03T20:32:25.511Z,19.50
2023-07-03T20:37:29.292Z,19.40
2023-07-03T20:42:32.697Z,19.40
2023-07-03T20:47:37.733Z,19.40
2023-07-03T20:52:42.359Z,19.20
2023-07-03T20:57:45.441Z,19.00
2023-07-03T21:02:51.767Z,18.80
2023-07-03T21:07:56.055Z,18.70
2023-07-03T21:12:59.074Z,18.60
2023-07-03T21:18:03.802Z,18.50
2023-07-03T21:23:07.219Z,18.50
2023-07-03T21:28:10.881Z,18.40
2023-07-03T21:33:15.796Z,18.40
2023-07-03T21:38:19.502Z,18.40
2023-07-03T21:43:23.661Z,18.40
2023-07-03T21:48:28.432Z,18.40
2023-07-03T21:53:31.829Z,18.30
2023-07-03T21:58:35.470Z,18.20
2023-07-03T22:03:40.182Z,18.20
2023-07-03T22:08:43.971Z,18.10
2023-07-03T22:13:47.804Z,18.10
2023-07-03T22:18:52.319Z,18.00
2023-07-03T22:23:55.399Z,18.00
2023-07-03T22:28:58.692Z,17.90
2023-07-03T22:34:03.375Z,17.90
2023-07-03T22:39:07.190Z,17.90
2023-07-03T22:44:11.233Z,17.90
2023-07-03T22:49:24.360Z,17.80
2023-07-03T22:54:28.929Z,17.60
2023-07-03T22:59:32.349Z,17.60
2023-07-03T23:04:36.793Z,17.50
2023-07-03T23:09:42.044Z,17.30
2023-07-03T23:14:50.059Z,17.20
2023-07-03T23:19:55.349Z,17.30
2023-07-03T23:25:00.296Z,17.30
2023-07-03T23:30:06.191Z,17.30
2023-07-03T23:35:12.429Z,17.20
2023-07-03T23:40:16.043Z,17.20
2023-07-03T23:45:21.343Z,17.10
2023-07-03T23:50:26.381Z,17.10
2023-07-03T23:55:32.854Z,17.10
